Time;durP1;ratioP1;P1;durP2;ratioP2;P2;SDS_P1;SDS_P2;PMS_P1;PMS_P2;Temp;Humidity;BMP_temperature;BMP_pressure;BME280_temperature;BME280_humidity;BME280_pressure;Samples;Min_cycle;Max_cycle;Signal;HPM_P1;HPM_P2
2021/05/20 00:00:55;;;;;;;1.30;0.40;;;11.60;70.30;;;;;;5034323;28;20025;-82
2021/05/20 00:03:21;;;;;;;1.20;0.70;;;11.50;70.40;;;;;;5040456;28;20041;-82
2021/05/20 00:05:46;;;;;;;2.90;0.70;;;11.60;70.70;;;;;;5037696;28;20025;-82
2021/05/20 00:08:12;;;;;;;1.60;0.60;;;11.60;70.60;;;;;;5045813;28;20040;-82
2021/05/20 00:10:38;;;;;;;2.00;1.10;;;11.60;70.70;;;;;;5047216;28;20029;-82
2021/05/20 00:13:04;;;;;;;2.23;1.10;;;11.50;70.60;;;;;;5032819;28;20551;-82
2021/05/20 00:15:30;;;;;;;3.17;1.03;;;11.50;70.70;;;;;;5049719;28;20067;-82
2021/05/20 00:17:55;;;;;;;3.47;0.80;;;11.40;70.80;;;;;;5049930;28;20026;-82
2021/05/20 00:20:21;;;;;;;0.90;0.70;;;11.40;71.10;;;;;;5031459;28;20025;-84
2021/05/20 00:22:47;;;;;;;4.37;0.83;;;11.50;71.10;;;;;;5040471;28;20025;-83
2021/05/20 00:25:12;;;;;;;1.63;0.77;;;11.50;71.00;;;;;;5030186;28;20052;-82
2021/05/20 00:27:38;;;;;;;2.50;0.80;;;11.50;70.90;;;;;;5028650;28;20052;-83
2021/05/20 00:30:06;;;;;;;1.33;0.70;;;11.50;71.00;;;;;;5051531;28;20487;-82
2021/05/20 00:32:31;;;;;;;1.93;0.83;;;11.40;70.90;;;;;;5048799;28;20500;-82
2021/05/20 00:34:57;;;;;;;5.03;1.20;;;11.40;71.10;;;;;;5036764;28;20144;-82
2021/05/20 00:37:23;;;;;;;1.57;1.17;;;11.40;71.10;;;;;;5038755;28;20124;-83
2021/05/20 00:39:49;;;;;;;0.83;0.73;;;11.40;71.30;;;;;;5035672;28;20022;-82
2021/05/20 00:42:14;;;;;;;2.07;0.90;;;11.40;71.50;;;;;;5031156;28;20112;-82
2021/05/20 00:44:51;;;;;;;1.20;0.90;;;11.40;72.10;;;;;;5029303;28;20037;-82
2021/05/20 00:47:22;;;;;;;1.97;1.00;;;11.40;71.70;;;;;;5032074;28;20424;-83
2021/05/20 00:49:49;;;;;;;1.53;1.10;;;11.30;71.70;;;;;;5032939;28;20029;-82
2021/05/20 00:52:14;;;;;;;1.27;1.10;;;11.30;71.80;;;;;;5026824;28;20484;-82
2021/05/20 00:54:41;;;;;;;3.10;1.10;;;11.30;71.80;;;;;;5042652;28;20056;-82
2021/05/20 00:57:08;;;;;;;0.93;0.70;;;11.30;71.80;;;;;;5033351;28;20041;-82
2021/05/20 00:59:33;;;;;;;2.33;0.90;;;11.40;71.90;;;;;;5044726;28;20095;-81
2021/05/20 01:02:00;;;;;;;1.97;1.17;;;11.40;71.70;;;;;;5031919;28;20040;-83
2021/05/20 01:04:26;;;;;;;4.70;1.57;;;11.40;71.80;;;;;;5035210;28;20029;-82
2021/05/20 01:06:52;;;;;;;1.33;1.20;;;11.40;71.90;;;;;;5034778;28;20511;-82
2021/05/20 01:09:18;;;;;;;1.40;0.70;;;11.40;71.60;;;;;;5034238;28;20242;-82
2021/05/20 01:11:44;;;;;;;0.80;0.70;;;11.40;71.80;;;;;;5046417;28;20432;-83
2021/05/20 01:14:11;;;;;;;1.17;0.50;;;11.30;71.60;;;;;;5038828;28;20029;-82
2021/05/20 01:16:38;;;;;;;3.03;1.20;;;11.30;71.60;;;;;;5024991;28;20033;-82
2021/05/20 01:19:04;;;;;;;3.07;1.10;;;11.30;71.60;;;;;;5033390;28;20086;-82
2021/05/20 01:21:32;;;;;;;9.20;2.80;;;11.30;71.50;;;;;;5033485;28;20099;-82
2021/05/20 01:23:58;;;;;;;1.33;0.90;;;11.40;71.50;;;;;;5050452;28;20039;-82
2021/05/20 01:26:24;;;;;;;3.93;1.07;;;11.30;71.40;;;;;;5039330;28;20036;-82
2021/05/20 01:28:50;;;;;;;1.50;0.80;;;11.30;71.50;;;;;;5052771;28;20412;-82
2021/05/20 01:31:16;;;;;;;1.27;1.07;;;11.30;71.70;;;;;;5033480;28;20025;-82
2021/05/20 01:33:42;;;;;;;1.03;0.90;;;11.30;71.60;;;;;;5045894;28;20028;-82
2021/05/20 01:36:08;;;;;;;1.20;1.00;;;11.20;71.50;;;;;;5036391;28;20056;-82
2021/05/20 01:41:08;;;;;;;3.97;0.67;;;11.20;71.80;;;;;;5047772;28;20060;-82
2021/05/20 01:43:34;;;;;;;0.73;0.73;;;11.20;71.70;;;;;;5051801;28;20063;-82
2021/05/20 01:46:00;;;;;;;0.97;0.70;;;11.30;71.60;;;;;;5046284;28;20123;-82
2021/05/20 01:48:27;;;;;;;0.70;0.70;;;11.30;71.70;;;;;;5047720;28;20132;-82
2021/05/20 01:50:59;;;;;;;1.47;0.83;;;11.20;71.50;;;;;;5034617;28;20024;-82
2021/05/20 01:53:25;;;;;;;1.30;1.17;;;11.20;71.70;;;;;;5050643;28;20448;-82
2021/05/20 01:55:51;;;;;;;1.20;1.00;;;11.20;71.80;;;;;;5032551;28;20056;-82
2021/05/20 01:58:16;;;;;;;3.50;1.10;;;11.20;71.70;;;;;;5044918;28;20442;-82
2021/05/20 02:00:42;;;;;;;5.27;1.23;;;11.30;71.90;;;;;;5036313;28;20021;-82
2021/05/20 02:03:08;;;;;;;1.50;1.10;;;11.30;71.80;;;;;;5045197;28;20099;-82
2021/05/20 02:05:33;;;;;;;1.77;0.93;;;11.30;71.70;;;;;;5033367;28;20078;-82
2021/05/20 02:07:59;;;;;;;1.40;1.20;;;11.40;71.70;;;;;;5030484;28;20469;-82
2021/05/20 02:10:25;;;;;;;2.47;1.33;;;11.40;71.50;;;;;;5027161;28;20026;-82
2021/05/20 02:12:51;;;;;;;2.40;0.90;;;11.40;71.60;;;;;;5024178;28;20110;-82
2021/05/20 02:15:17;;;;;;;2.77;1.10;;;11.40;71.60;;;;;;5023360;28;20025;-83
2021/05/20 02:17:42;;;;;;;2.07;0.90;;;11.50;71.60;;;;;;5032038;28;20025;-83
2021/05/20 02:20:09;;;;;;;1.27;0.90;;;11.40;71.50;;;;;;5024313;28;20897;-82
2021/05/20 02:22:36;;;;;;;2.17;0.90;;;11.40;71.50;;;;;;5029407;28;20025;-83
2021/05/20 02:25:04;;;;;;;3.33;1.00;;;11.40;71.50;;;;;;5030596;28;20022;-82
2021/05/20 02:27:29;;;;;;;2.80;0.90;;;11.40;71.60;;;;;;5027581;28;20061;-82
2021/05/20 02:29:55;;;;;;;1.33;0.70;;;11.40;71.90;;;;;;5030583;28;20115;-82
2021/05/20 02:32:21;;;;;;;2.70;1.70;;;11.40;72.00;;;;;;5031226;28;20026;-81
2021/05/20 02:34:46;;;;;;;15.27;11.17;;;11.40;72.10;;;;;;5030274;28;20039;-82
2021/05/20 02:37:12;;;;;;;7.73;4.80;;;11.40;72.00;;;;;;5027542;28;20125;-82
2021/05/20 02:39:38;;;;;;;3.97;3.13;;;11.30;72.00;;;;;;5012787;28;20026;-82
2021/05/20 02:42:04;;;;;;;2.27;1.90;;;11.30;72.10;;;;;;5044041;28;20388;-82
2021/05/20 02:44:30;;;;;;;7.63;2.13;;;11.30;72.10;;;;;;5031859;28;20021;-83
2021/05/20 02:46:55;;;;;;;2.00;1.60;;;11.30;72.10;;;;;;5039664;28;20118;-82
2021/05/20 02:49:22;;;;;;;2.17;1.30;;;11.30;72.30;;;;;;5036632;28;20396;-82
2021/05/20 02:51:48;;;;;;;3.63;1.60;;;11.20;72.30;;;;;;5033803;28;20026;-91
2021/05/20 02:54:13;;;;;;;1.70;1.30;;;11.10;72.40;;;;;;5033587;28;20033;-90
2021/05/20 02:56:40;;;;;;;1.40;1.30;;;11.10;72.60;;;;;;5037033;28;20072;-89
2021/05/20 02:59:06;;;;;;;2.80;1.80;;;11.20;72.60;;;;;;5035294;28;20025;-91
2021/05/20 03:01:38;;;;;;;3.03;1.70;;;11.20;72.50;;;;;;5034254;28;20472;-90
2021/05/20 03:04:04;;;;;;;3.58;1.70;;;11.20;72.50;;;;;;5053134;28;20017;-90
2021/05/20 03:06:30;;;;;;;5.67;1.70;;;11.30;72.50;;;;;;5037939;28;20527;-89
2021/05/20 03:08:57;;;;;;;1.70;1.40;;;11.20;72.70;;;;;;5038610;28;20025;-90
2021/05/20 03:11:24;;;;;;;2.77;1.50;;;11.20;72.80;;;;;;5056353;28;20086;-90
2021/05/20 03:13:50;;;;;;;1.07;0.97;;;11.10;72.90;;;;;;5035437;28;20056;-90
2021/05/20 03:16:16;;;;;;;1.40;1.20;;;11.10;72.90;;;;;;5050847;28;20029;-90
2021/05/20 03:18:42;;;;;;;1.97;0.80;;;11.10;73.30;;;;;;5029432;28;20028;-89
2021/05/20 03:21:08;;;;;;;0.60;0.60;;;11.00;72.80;;;;;;5050851;28;20025;-90
2021/05/20 03:23:33;;;;;;;2.03;0.60;;;11.00;72.90;;;;;;5036810;28;20111;-90
2021/05/20 03:25:59;;;;;;;2.33;0.47;;;11.00;73.00;;;;;;5036410;28;20025;-90
2021/05/20 03:28:25;;;;;;;0.67;0.30;;;11.00;73.00;;;;;;5037319;28;20117;-89
2021/05/20 03:30:50;;;;;;;2.00;0.40;;;11.00;72.70;;;;;;5036153;28;20365;-89
2021/05/20 03:33:16;;;;;;;0.90;0.63;;;11.00;72.60;;;;;;5039530;28;20028;-90
2021/05/20 03:35:42;;;;;;;0.93;0.50;;;11.00;72.40;;;;;;5039371;28;20040;-89
2021/05/20 03:38:07;;;;;;;0.97;0.40;;;11.10;72.30;;;;;;5037513;28;20025;-89
2021/05/20 03:40:33;;;;;;;0.70;0.40;;;11.10;72.00;;;;;;5056001;28;20564;-89
2021/05/20 03:42:59;;;;;;;1.10;0.70;;;11.10;72.10;;;;;;5039762;28;20032;-90
2021/05/20 03:45:24;;;;;;;1.33;0.60;;;11.00;72.00;;;;;;5037771;28;20507;-90
2021/05/20 03:47:50;;;;;;;0.90;0.50;;;11.00;71.90;;;;;;5036678;28;20449;-90
2021/05/20 03:50:16;;;;;;;8.23;0.87;;;11.00;71.90;;;;;;5033278;28;20032;-91
2021/05/20 03:52:42;;;;;;;1.30;0.40;;;10.90;72.10;;;;;;5036777;28;20035;-90
2021/05/20 03:55:08;;;;;;;1.87;0.50;;;10.90;72.30;;;;;;5035974;28;20029;-90
2021/05/20 03:57:33;;;;;;;5.70;0.70;;;10.90;72.50;;;;;;5051562;28;20021;-90
2021/05/20 03:59:59;;;;;;;2.83;0.57;;;10.90;72.70;;;;;;5038378;28;20082;-90
2021/05/20 04:02:25;;;;;;;2.23;1.40;;;10.90;72.80;;;;;;5037478;28;20083;-89
2021/05/20 04:04:51;;;;;;;1.70;0.93;;;11.00;73.00;;;;;;5054644;28;20028;-90
2021/05/20 04:07:33;;;;;;;2.67;1.17;;;11.00;72.90;;;;;;5036926;28;20025;-90
2021/05/20 04:09:58;;;;;;;3.30;0.95;;;11.00;72.90;;;;;;5038427;28;20040;-89
2021/05/20 04:12:24;;;;;;;3.07;1.40;;;11.00;72.90;;;;;;5037861;28;20025;-90
2021/05/20 04:14:50;;;;;;;2.83;1.60;;;11.10;73.00;;;;;;5036977;28;20032;-90
2021/05/20 04:17:15;;;;;;;5.57;1.37;;;11.10;73.00;;;;;;5036759;28;20511;-90
2021/05/20 04:19:41;;;;;;;6.77;2.13;;;11.10;72.90;;;;;;5036804;28;20044;-90
2021/05/20 04:22:07;;;;;;;3.40;2.13;;;11.10;73.00;;;;;;5037712;28;20056;-91
2021/05/20 04:24:34;;;;;;;3.57;2.00;;;11.00;73.00;;;;;;5037228;28;20044;-90
2021/05/20 04:26:59;;;;;;;3.03;2.10;;;11.00;73.30;;;;;;5037642;28;20029;-90
2021/05/20 04:29:25;;;;;;;2.20;2.00;;;11.00;73.40;;;;;;5039472;28;20036;-90
2021/05/20 04:31:51;;;;;;;3.40;2.60;;;11.00;73.60;;;;;;5039826;28;20498;-90
2021/05/20 04:34:17;;;;;;;10.13;2.03;;;11.10;73.60;;;;;;5057774;28;20207;-90
2021/05/20 04:36:42;;;;;;;3.40;2.30;;;11.10;74.10;;;;;;5041941;28;20025;-90
2021/05/20 04:39:08;;;;;;;7.63;2.73;;;11.10;73.60;;;;;;5035784;28;20439;-90
2021/05/20 04:41:34;;;;;;;2.57;1.77;;;11.10;73.70;;;;;;5035351;28;20049;-89
2021/05/20 04:44:00;;;;;;;3.00;2.40;;;11.20;73.70;;;;;;5055119;28;20464;-90
2021/05/20 04:46:26;;;;;;;5.67;5.07;;;11.20;73.50;;;;;;5036712;28;20112;-90
2021/05/20 04:48:51;;;;;;;7.37;4.60;;;11.20;73.30;;;;;;5035899;28;20021;-90
2021/05/20 04:51:17;;;;;;;7.90;3.83;;;11.20;73.60;;;;;;5037025;28;20036;-90
2021/05/20 04:53:43;;;;;;;6.63;3.30;;;11.20;73.50;;;;;;5035814;28;20048;-90
2021/05/20 04:56:09;;;;;;;5.00;3.47;;;11.20;73.40;;;;;;5037376;28;20043;-90
2021/05/20 04:58:35;;;;;;;5.77;4.80;;;11.30;73.30;;;;;;5037054;28;20022;-89
2021/05/20 05:01:01;;;;;;;7.97;4.10;;;11.30;73.20;;;;;;5025669;28;20048;-90
2021/05/20 05:03:27;;;;;;;7.50;3.50;;;11.30;73.30;;;;;;5022690;28;20052;-91
2021/05/20 05:05:53;;;;;;;4.50;2.77;;;11.30;73.10;;;;;;5034243;28;20116;-90
2021/05/20 05:08:19;;;;;;;5.47;3.30;;;11.40;73.10;;;;;;5053547;28;20025;-89
2021/05/20 05:10:45;;;;;;;4.03;3.10;;;11.40;72.90;;;;;;5034884;28;20025;-89
2021/05/20 05:13:11;;;;;;;2.03;1.57;;;11.40;72.80;;;;;;5025396;28;20035;-90
2021/05/20 05:15:37;;;;;;;2.00;1.40;;;11.30;72.50;;;;;;5025380;28;20284;-88
2021/05/20 05:18:03;;;;;;;2.17;1.10;;;11.30;72.80;;;;;;5032036;28;20021;-87
2021/05/20 05:20:28;;;;;;;3.00;1.40;;;11.30;72.70;;;;;;5035801;28;20043;-89
2021/05/20 05:22:54;;;;;;;1.93;1.00;;;11.20;72.80;;;;;;5026085;28;20047;-90
2021/05/20 05:25:20;;;;;;;3.77;0.90;;;11.20;72.60;;;;;;5033443;28;20017;-90
2021/05/20 05:27:46;;;;;;;5.20;1.83;;;11.30;72.70;;;;;;5036461;28;20017;-89
2021/05/20 05:30:12;;;;;;;3.03;2.20;;;11.30;72.70;;;;;;5046036;28;20028;-90
2021/05/20 05:32:38;;;;;;;3.73;1.80;;;11.40;72.50;;;;;;5033990;28;20021;-90
2021/05/20 05:35:04;;;;;;;2.67;1.50;;;11.40;72.20;;;;;;5026811;28;20412;-90
2021/05/20 05:37:30;;;;;;;2.73;1.50;;;11.40;72.30;;;;;;5036711;28;20058;-90
2021/05/20 05:39:55;;;;;;;4.80;1.87;;;11.40;72.40;;;;;;5038828;28;20582;-90
2021/05/20 05:42:21;;;;;;;3.53;1.93;;;11.40;72.50;;;;;;5036685;28;20021;-90
2021/05/20 05:44:47;;;;;;;2.83;2.00;;;11.40;72.50;;;;;;5035984;28;20025;-90
2021/05/20 05:47:13;;;;;;;3.93;1.80;;;11.50;72.40;;;;;;5036412;28;20028;-90
2021/05/20 05:49:43;;;;;;;3.20;1.63;;;11.50;72.20;;;;;;5034484;28;22119;-89
2021/05/20 05:52:10;;;;;;;1.80;1.60;;;11.60;72.10;;;;;;5040869;28;20484;-90
2021/05/20 05:54:36;;;;;;;4.80;2.07;;;11.60;71.80;;;;;;5031145;28;20476;-90
2021/05/20 05:57:02;;;;;;;3.37;2.67;;;11.60;71.70;;;;;;5035296;28;20021;-90
2021/05/20 05:59:27;;;;;;;5.17;3.00;;;11.70;72.10;;;;;;5044076;28;20043;-89
2021/05/20 06:01:53;;;;;;;4.70;3.57;;;11.70;72.50;;;;;;5032558;28;20056;-90
2021/05/20 06:04:19;;;;;;;6.10;4.27;;;11.70;72.00;;;;;;5052781;28;20052;-89
2021/05/20 06:06:46;;;;;;;7.00;5.13;;;11.70;72.20;;;;;;5035881;28;20032;-90
2021/05/20 06:09:13;;;;;;;6.30;4.40;;;11.70;72.50;;;;;;5039189;28;20029;-90
2021/05/20 06:11:39;;;;;;;6.73;5.70;;;11.70;72.50;;;;;;5043899;28;20554;-90
2021/05/20 06:14:07;;;;;;;8.87;5.07;;;11.80;72.50;;;;;;5063663;28;20035;-90
2021/05/20 06:16:39;;;;;;;7.00;5.13;;;12.00;72.30;;;;;;5065404;28;20123;-90
2021/05/20 06:19:05;;;;;;;4.53;4.07;;;11.90;72.10;;;;;;5046365;28;20028;-89
2021/05/20 06:21:31;;;;;;;5.37;4.27;;;12.00;71.80;;;;;;5038091;28;20029;-90
2021/05/20 06:23:57;;;;;;;5.87;4.33;;;12.00;71.50;;;;;;5035775;28;20110;-90
2021/05/20 06:26:24;;;;;;;8.00;4.50;;;12.00;71.40;;;;;;5035196;28;20102;-90
2021/05/20 06:28:50;;;;;;;6.03;4.33;;;12.10;71.50;;;;;;5040004;28;20500;-89
2021/05/20 06:31:16;;;;;;;7.93;4.90;;;12.10;71.40;;;;;;5031571;28;20043;-90
2021/05/20 06:33:41;;;;;;;7.77;4.73;;;12.10;71.60;;;;;;5033071;28;20036;-91
2021/05/20 06:36:07;;;;;;;10.83;4.17;;;12.10;71.60;;;;;;5032594;28;20029;-90
2021/05/20 06:38:33;;;;;;;5.47;3.90;;;12.10;71.30;;;;;;5034483;28;20024;-91
2021/05/20 06:41:02;;;;;;;4.23;3.27;;;12.10;71.30;;;;;;5033139;28;20111;-90
2021/05/20 06:43:28;;;;;;;5.13;2.87;;;12.10;71.10;;;;;;5034314;28;20025;-91
2021/05/20 06:45:54;;;;;;;4.67;2.97;;;12.10;70.90;;;;;;5034183;28;20040;-91
2021/05/20 06:48:19;;;;;;;5.70;3.70;;;12.10;70.70;;;;;;5032310;28;20476;-90
2021/05/20 06:50:45;;;;;;;6.50;4.50;;;12.10;70.70;;;;;;5037321;28;20143;-90
2021/05/20 06:53:11;;;;;;;5.03;4.53;;;12.10;70.50;;;;;;5033031;28;20511;-90
2021/05/20 06:55:37;;;;;;;5.20;4.70;;;12.10;70.60;;;;;;5028638;28;20025;-91
2021/05/20 07:00:31;;;;;;;4.90;4.40;;;12.10;70.60;;;;;;5051956;28;20032;-91
2021/05/20 07:02:56;;;;;;;5.20;4.70;;;12.00;70.70;;;;;;5032066;28;20045;-90
2021/05/20 07:05:22;;;;;;;5.43;4.70;;;12.10;70.80;;;;;;5032476;28;20018;-90
2021/05/20 07:07:48;;;;;;;5.23;4.73;;;12.20;70.90;;;;;;5032270;28;20552;-90
2021/05/20 07:10:14;;;;;;;9.13;7.40;;;12.30;70.90;;;;;;5032572;28;20116;-89
2021/05/20 07:12:39;;;;;;;6.03;5.07;;;12.40;70.70;;;;;;5026266;28;20112;-89
2021/05/20 07:15:06;;;;;;;4.63;3.80;;;12.40;70.30;;;;;;5032691;28;20030;-89
2021/05/20 07:17:32;;;;;;;5.33;4.20;;;12.40;69.70;;;;;;5027277;28;20513;-89
2021/05/20 07:19:58;;;;;;;6.70;3.97;;;12.50;69.70;;;;;;5029167;28;20171;-90
2021/05/20 07:22:23;;;;;;;7.13;4.30;;;12.50;69.20;;;;;;5045570;28;20045;-90
2021/05/20 07:24:49;;;;;;;5.67;4.57;;;12.60;69.00;;;;;;5030670;28;20068;-91
2021/05/20 07:27:16;;;;;;;5.63;4.20;;;12.70;69.00;;;;;;5031890;28;20038;-90
2021/05/20 07:29:41;;;;;;;5.10;3.83;;;12.80;68.90;;;;;;5033458;28;20056;-90
2021/05/20 07:32:09;;;;;;;4.17;3.63;;;13.00;69.10;;;;;;5037037;28;20022;-91
2021/05/20 07:34:37;;;;;;;7.13;5.67;;;13.20;69.20;;;;;;5036141;28;20048;-90
2021/05/20 07:37:04;;;;;;;7.00;5.03;;;13.40;68.90;;;;;;5038443;28;20033;-90
2021/05/20 07:39:29;;;;;;;4.83;4.23;;;13.60;68.30;;;;;;5046594;28;20123;-91
2021/05/20 07:41:55;;;;;;;5.20;2.87;;;13.80;67.80;;;;;;5035890;28;20060;-90
2021/05/20 07:44:21;;;;;;;4.43;2.77;;;13.90;67.50;;;;;;5035661;28;20029;-90
2021/05/20 07:46:48;;;;;;;3.40;3.10;;;14.00;67.10;;;;;;5036675;28;20037;-91
2021/05/20 07:49:13;;;;;;;3.97;3.37;;;13.90;65.00;;;;;;5035041;28;20088;-90
2021/05/20 07:51:39;;;;;;;7.33;3.97;;;13.80;64.30;;;;;;5043469;28;20369;-91
2021/05/20 07:54:05;;;;;;;5.27;3.00;;;13.80;63.90;;;;;;5033577;28;20076;-90
2021/05/20 07:56:33;;;;;;;4.10;2.90;;;13.80;63.60;;;;;;5054607;28;20033;-88
2021/05/20 07:58:59;;;;;;;2.13;1.50;;;13.90;63.60;;;;;;5034003;28;20033;-90
2021/05/20 08:01:25;;;;;;;4.80;1.43;;;14.10;63.50;;;;;;5037483;28;20378;-90
2021/05/20 08:03:59;;;;;;;1.17;0.47;;;14.20;63.40;;;;;;5056443;28;20040;-90
2021/05/20 08:06:30;;;;;;;1.20;0.97;;;14.50;63.50;;;;;;5038332;28;20060;-90
2021/05/20 08:09:04;;;;;;;1.90;1.10;;;14.70;61.30;;;;;;5058296;28;20029;-90
2021/05/20 08:11:33;;;;;;;1.30;1.00;;;14.90;60.90;;;;;;5042966;28;20051;-90
2021/05/20 08:13:59;;;;;;;2.40;1.38;;;14.90;60.00;;;;;;5037420;28;20112;-90
2021/05/20 08:16:25;;;;;;;3.33;1.75;;;15.20;59.60;;;;;;5044852;28;20059;-89
2021/05/20 08:18:50;;;;;;;4.03;1.77;;;15.30;59.30;;;;;;5037089;28;20134;-89
2021/05/20 08:21:16;;;;;;;2.55;1.58;;;15.50;58.50;;;;;;5038278;28;20155;-90
2021/05/20 08:23:42;;;;;;;5.25;1.92;;;15.30;58.30;;;;;;5038025;28;20025;-90
2021/05/20 08:26:07;;;;;;;6.43;3.47;;;15.40;58.60;;;;;;5036122;28;20064;-90
2021/05/20 08:28:34;;;;;;;1.37;0.83;;;15.20;58.60;;;;;;5060153;28;20020;-90
2021/05/20 08:31:00;;;;;;;1.70;0.70;;;15.00;58.30;;;;;;5042007;28;20499;-90
2021/05/20 08:33:25;;;;;;;3.17;1.23;;;15.00;58.40;;;;;;5038360;28;20029;-90
2021/05/20 08:35:51;;;;;;;3.40;0.90;;;14.90;58.50;;;;;;5041389;28;20071;-90
2021/05/20 08:38:18;;;;;;;3.23;0.70;;;14.90;59.20;;;;;;5040465;28;20120;-90
2021/05/20 08:40:44;;;;;;;1.90;0.60;;;14.90;59.60;;;;;;5038281;28;20370;-90
2021/05/20 08:43:10;;;;;;;3.57;1.10;;;14.90;59.70;;;;;;5034651;28;20477;-90
2021/05/20 08:45:38;;;;;;;3.03;0.93;;;14.90;60.00;;;;;;5054590;28;20021;-89
2021/05/20 08:48:04;;;;;;;1.20;0.90;;;14.70;60.10;;;;;;5056706;28;20032;-90
2021/05/20 08:50:31;;;;;;;0.80;0.70;;;14.70;60.60;;;;;;5039891;28;20025;-90
2021/05/20 08:52:58;;;;;;;3.33;0.90;;;14.70;60.00;;;;;;5038099;28;20092;-90
2021/05/20 08:55:27;;;;;;;1.00;0.53;;;14.50;59.80;;;;;;5037732;28;20481;-90
2021/05/20 08:57:55;;;;;;;0.63;0.40;;;14.20;60.10;;;;;;5037889;28;20412;-90
2021/05/20 09:00:23;;;;;;;1.60;0.90;;;14.10;60.70;;;;;;5037260;28;20025;-91
2021/05/20 09:02:50;;;;;;;1.90;0.90;;;14.30;61.70;;;;;;5055201;28;20060;-90
2021/05/20 09:05:21;;;;;;;7.10;1.60;;;14.50;61.60;;;;;;5062738;28;20051;-90
2021/05/20 09:07:55;;;;;;;0.60;0.50;;;14.50;61.50;;;;;;5045337;28;20138;-91
2021/05/20 09:10:26;;;;;;;2.33;0.40;;;14.40;60.80;;;;;;5035768;28;20036;-89
2021/05/20 09:12:56;;;;;;;0.30;0.30;;;14.40;60.70;;;;;;5035551;28;20028;-89
2021/05/20 09:15:27;;;;;;;0.50;0.30;;;14.50;61.00;;;;;;5032437;28;20024;-89
2021/05/20 09:18:00;;;;;;;1.27;0.50;;;14.70;60.30;;;;;;5030039;28;20034;-90
2021/05/20 09:20:26;;;;;;;1.03;0.30;;;15.00;59.80;;;;;;5038115;28;20059;-90
2021/05/20 09:23:11;;;;;;;0.70;0.30;;;15.30;58.90;;;;;;5036532;28;20098;-90
2021/05/20 09:25:38;;;;;;;1.13;0.40;;;15.50;58.00;;;;;;5037730;28;20020;-90
2021/05/20 09:28:05;;;;;;;0.35;0.20;;;15.80;57.80;;;;;;5031074;28;20814;-89
2021/05/20 09:30:33;;;;;;;1.08;0.30;;;16.00;57.00;;;;;;5032028;28;20103;-90
2021/05/20 09:33:11;;;;;;;0.90;0.30;;;16.10;56.20;;;;;;5049862;28;20472;-90
2021/05/20 09:35:41;;;;;;;2.28;0.80;;;15.90;55.60;;;;;;5043544;28;20032;-90
2021/05/20 09:38:12;;;;;;;0.20;0.10;;;15.70;55.80;;;;;;5039251;28;20451;-90
2021/05/20 09:40:44;;;;;;;1.75;0.75;;;15.60;55.90;;;;;;5037283;28;20049;-91
2021/05/20 09:43:37;;;;;;;1.40;0.45;;;15.50;55.50;;;;;;5033292;28;20036;-91
2021/05/20 09:46:02;;;;;;;;;;;15.50;55.60;;;;;;5033776;28;20126;-90
2021/05/20 09:48:37;;;;;;;0.98;0.50;;;15.50;55.90;;;;;;5047162;28;20336;-90
2021/05/20 09:51:03;;;;;;;2.53;0.25;;;15.50;55.80;;;;;;5053861;28;20060;-90
2021/05/20 09:53:29;;;;;;;0.20;0.10;;;15.70;55.90;;;;;;5035022;28;20025;-91
2021/05/20 09:56:00;;;;;;;2.35;0.28;;;15.90;55.30;;;;;;5034631;28;20488;-88
2021/05/20 09:58:31;;;;;;;0.17;0.13;;;15.90;54.90;;;;;;5032215;28;20059;-89
2021/05/20 10:01:01;;;;;;;0.95;0.10;;;15.80;54.80;;;;;;5036038;28;20124;-91
2021/05/20 10:03:28;;;;;;;1.55;0.30;;;15.80;54.20;;;;;;5035473;28;20048;-90
2021/05/20 10:06:00;;;;;;;3.60;0.60;;;15.70;54.10;;;;;;5041751;28;20158;-91
2021/05/20 10:08:29;;;;;;;0.30;0.20;;;15.70;54.10;;;;;;5034719;28;20068;-91
2021/05/20 10:10:56;;;;;;;0.20;0.20;;;15.90;54.10;;;;;;5034407;28;20413;-87
2021/05/20 10:13:27;;;;;;;1.27;0.40;;;16.00;53.90;;;;;;5031553;28;20029;-91
2021/05/20 10:15:54;;;;;;;0.52;0.28;;;16.20;53.80;;;;;;5040909;28;20039;-91
2021/05/20 10:18:29;;;;;;;0.30;0.20;;;16.40;53.90;;;;;;5031492;28;20577;-93
2021/05/20 10:20:57;;;;;;;0.28;0.10;;;16.60;53.30;;;;;;5029395;28;20032;-92
2021/05/20 10:23:25;;;;;;;0.30;0.20;;;16.70;52.70;;;;;;5052191;28;20389;-92
2021/05/20 10:25:53;;;;;;;1.25;0.22;;;16.80;52.00;;;;;;5053473;28;20025;-92
2021/05/20 10:28:20;;;;;;;2.58;0.20;;;17.00;51.70;;;;;;5038286;28;20028;-91
2021/05/20 10:30:49;;;;;;;0.93;0.47;;;17.20;51.60;;;;;;5036276;28;20021;-92
2021/05/20 10:33:17;;;;;;;2.05;0.10;;;17.50;51.50;;;;;;5051480;28;20025;-91
2021/05/20 10:35:51;;;;;;;0.85;0.50;;;17.70;51.10;;;;;;5035992;28;20048;-91
2021/05/20 10:38:38;;;;;;;3.90;0.25;;;17.90;50.80;;;;;;5039858;28;20063;-92
2021/05/20 10:41:17;;;;;;;0.55;0.20;;;18.10;50.30;;;;;;5031263;28;20128;-91
2021/05/20 10:43:45;;;;;;;0.28;0.22;;;18.20;49.30;;;;;;5038141;28;20025;-90
2021/05/20 10:46:18;;;;;;;0.10;0.10;;;18.10;49.20;;;;;;5034598;28;20033;-89
2021/05/20 10:48:52;;;;;;;0.50;0.43;;;18.00;47.60;;;;;;5051578;28;20044;-92
2021/05/20 10:51:25;;;;;;;0.20;0.20;;;18.10;47.90;;;;;;5034373;28;20037;-91
2021/05/20 10:53:55;;;;;;;0.28;0.10;;;18.10;47.00;;;;;;5048560;28;20029;-91
2021/05/20 10:56:23;;;;;;;0.13;0.10;;;18.00;46.40;;;;;;5046304;28;20048;-91
2021/05/20 10:58:51;;;;;;;0.43;0.10;;;18.10;46.00;;;;;;5053585;28;20160;-92
2021/05/20 11:01:24;;;;;;;0.10;0.10;;;18.20;45.80;;;;;;5039291;28;20075;-89
2021/05/20 11:03:51;;;;;;;0.73;0.20;;;18.30;44.90;;;;;;5035328;28;20057;-92
2021/05/20 11:06:18;;;;;;;20.15;0.85;;;18.40;45.20;;;;;;5038320;28;20036;-91
2021/05/20 11:08:47;;;;;;;0.30;0.17;;;18.40;46.00;;;;;;5038880;28;20025;-92
2021/05/20 11:11:31;;;;;;;0.30;0.22;;;18.30;46.00;;;;;;5038895;28;20112;-91
2021/05/20 11:14:06;;;;;;;4.75;0.22;;;18.10;46.20;;;;;;5039206;28;20029;-92
2021/05/20 11:16:34;;;;;;;0.17;0.15;;;18.10;46.60;;;;;;5043270;28;20029;-92
2021/05/20 11:21:59;;;;;;;1.30;0.35;;;18.20;47.00;;;;;;5056449;28;20509;-91
2021/05/20 11:24:28;;;;;;;0.10;0.10;;;18.50;47.00;;;;;;5056454;28;20032;-91
2021/05/20 11:26:59;;;;;;;0.25;0.10;;;18.60;46.80;;;;;;5037997;28;20024;-91
2021/05/20 11:29:32;;;;;;;0.52;0.30;;;18.60;46.60;;;;;;5056039;28;20041;-91
2021/05/20 11:35:03;;;;;;;3.78;0.57;;;18.60;46.10;;;;;;5049571;28;20029;-91
2021/05/20 11:37:37;;;;;;;2.53;0.40;;;18.30;46.60;;;;;;5037968;28;20056;-91
2021/05/20 11:40:05;;;;;;;2.60;0.20;;;18.20;46.80;;;;;;5041560;28;20041;-91
2021/05/20 11:42:33;;;;;;;2.28;0.30;;;18.00;47.10;;;;;;5037806;28;20108;-91
2021/05/20 11:44:59;;;;;;;3.67;0.70;;;17.70;47.20;;;;;;5037872;28;20369;-91
2021/05/20 11:47:25;;;;;;;1.63;0.47;;;17.50;47.90;;;;;;5038227;28;20036;-91
2021/05/20 11:49:52;;;;;;;1.58;0.25;;;17.20;47.90;;;;;;5039423;28;20025;-92
2021/05/20 11:52:18;;;;;;;0.75;0.20;;;17.10;48.60;;;;;;5055813;28;20025;-92
2021/05/20 11:54:50;;;;;;;0.30;0.10;;;17.30;48.20;;;;;;5037870;28;20025;-91
2021/05/20 11:57:22;;;;;;;0.43;0.13;;;17.60;47.60;;;;;;5031297;28;20075;-92
2021/05/20 11:59:49;;;;;;;0.55;0.40;;;17.60;47.90;;;;;;5038135;28;20025;-92
2021/05/20 12:02:24;;;;;;;0.20;0.20;;;17.60;48.10;;;;;;5037127;28;20057;-91
2021/05/20 12:05:11;;;;;;;0.52;0.20;;;17.60;48.20;;;;;;5037489;28;20116;-92
2021/05/20 12:07:39;;;;;;;0.38;0.30;;;17.60;47.60;;;;;;5024476;28;20139;-92
2021/05/20 12:10:12;;;;;;;2.40;0.40;;;17.60;48.30;;;;;;5055514;28;20033;-91
2021/05/20 12:13:06;;;;;;;1.83;0.30;;;17.60;47.80;;;;;;5038103;28;20025;-91
2021/05/20 12:15:32;;;;;;;1.05;0.20;;;17.70;47.60;;;;;;5034940;28;20094;-91
2021/05/20 12:17:59;;;;;;;0.28;0.20;;;17.70;47.40;;;;;;5036196;28;20203;-92
2021/05/20 12:20:28;;;;;;;0.82;0.20;;;17.60;47.10;;;;;;5035899;28;20465;-90
2021/05/20 12:22:54;;;;;;;0.93;0.10;;;17.70;47.20;;;;;;5049028;28;20351;-91
2021/05/20 12:25:23;;;;;;;5.05;0.38;;;17.70;46.70;;;;;;5041880;28;20040;-92
2021/05/20 12:27:54;;;;;;;0.43;0.30;;;17.50;47.40;;;;;;5037196;28;20043;-91
2021/05/20 12:30:28;;;;;;;0.40;0.30;;;17.70;48.60;;;;;;5036348;28;20044;-92
2021/05/20 12:33:06;;;;;;;3.13;0.20;;;18.10;48.30;;;;;;5035048;28;20064;-90
2021/05/20 12:35:33;;;;;;;0.30;0.30;;;18.40;48.20;;;;;;5046017;28;20029;-91
2021/05/20 12:38:13;;;;;;;0.75;0.40;;;18.70;47.80;;;;;;5037155;28;20032;-91
2021/05/20 12:40:41;;;;;;;1.05;0.30;;;18.90;47.80;;;;;;5036179;28;20082;-91
2021/05/20 12:43:09;;;;;;;2.92;0.30;;;18.90;47.30;;;;;;5043655;28;20028;-91
2021/05/20 12:45:41;;;;;;;0.20;0.20;;;18.70;47.20;;;;;;5035206;28;20032;-90
2021/05/20 12:48:25;;;;;;;1.05;0.30;;;18.70;47.30;;;;;;5036809;28;20123;-91
2021/05/20 12:50:53;;;;;;;0.40;0.20;;;18.60;47.10;;;;;;5055737;28;20059;-92
2021/05/20 12:53:27;;;;;;;3.42;0.20;;;18.50;47.30;;;;;;5035805;28;20025;-91
2021/05/20 12:55:53;;;;;;;1.33;0.10;;;18.60;47.10;;;;;;5035402;28;20053;-91
2021/05/20 12:58:19;;;;;;;0.65;0.20;;;18.60;47.00;;;;;;5037553;28;20055;-91
2021/05/20 13:00:59;;;;;;;2.00;0.20;;;18.50;46.40;;;;;;5036898;28;20017;-90